Terminal Aerodrome Forecast
Issued by NWS

Home | Current Version | Previous Version | Text Only | Print | Product List | Glossary Off
Versions: 1 2 3 4 5 6 7 8 9 10 11 12 13 14 15 16 17 18 19 20 21 22

000
FTUS43 KGRB 200256 AAA
TAFATW
TAF AMD
KATW 200256Z 2003/2024 03007KT P6SM SCT050
      TEMPO 2003/2005 BKN050
     FM200700 VRB03KT P6SM SCT050 SCT250
     FM201500 26006KT P6SM BKN200=

USA.gov is the U.S. government's official web portal to all federal, state and local government web resources and services.